Time;durP1;ratioP1;P1;durP2;ratioP2;P2;SDS_P1;SDS_P2;PMS_P1;PMS_P2;Temp;Humidity;BMP_temperature;BMP_pressure;BME280_temperature;BME280_humidity;BME280_pressure;Samples;Min_cycle;Max_cycle;Signal;HPM_P1;HPM_P2
2023/05/08 00:01:29;;;;;;;10.50;5.20;;;;;;;21.45;21.04;101116.02;107281;1266;74420;-66
2023/05/08 00:06:38;;;;;;;9.50;4.90;;;;;;;21.50;20.96;101113.88;104760;1292;600937;-64
2023/05/08 00:09:05;;;;;;;8.90;4.90;;;;;;;21.54;20.81;101113.13;107198;1267;59146;-64
2023/05/08 00:11:31;;;;;;;11.30;5.40;;;;;;;21.46;20.80;101114.73;107211;1267;59308;-65
2023/05/08 00:13:58;;;;;;;8.10;5.10;;;;;;;21.43;20.95;101113.10;107254;1266;74146;-65
2023/05/08 00:16:25;;;;;;;8.20;4.70;;;;;;;21.61;20.73;101113.17;107708;1258;72517;-65
2023/05/08 00:18:53;;;;;;;9.10;4.70;;;;;;;21.56;20.85;101113.52;107679;1259;74571;-65
2023/05/08 00:21:19;;;;;;;6.10;4.20;;;;;;;21.45;20.80;101114.77;106471;1257;1847419;-65
2023/05/08 00:23:46;;;;;;;6.90;3.70;;;;;;;21.57;20.70;101114.52;107865;1256;61342;-64
2023/05/08 00:26:13;;;;;;;8.30;4.10;;;;;;;21.55;20.75;101114.63;107885;1256;74312;-65
2023/05/08 00:28:40;;;;;;;7.80;4.00;;;;;;;21.53;20.77;101115.83;107857;1260;69970;-65
2023/05/08 00:31:07;;;;;;;9.30;4.20;;;;;;;21.59;20.75;101114.90;107877;1260;73065;-66
2023/05/08 00:33:33;;;;;;;6.30;3.70;;;;;;;21.54;20.67;101115.80;107845;1256;61990;-66
2023/05/08 00:36:01;;;;;;;8.70;3.90;;;;;;;21.59;20.59;101116.33;107976;1256;61206;-67
2023/05/08 00:38:34;;;;;;;12.50;4.20;;;;;;;21.45;20.72;101117.27;107946;1257;74367;-65
2023/05/08 00:41:01;;;;;;;8.00;3.40;;;;;;;21.23;20.92;101118.71;107941;1256;72475;-65
2023/05/08 00:43:28;;;;;;;8.10;4.20;;;;;;;21.12;20.97;101115.67;107890;1256;72709;-65
2023/05/08 00:45:56;;;;;;;8.80;3.80;;;;;;;21.42;20.90;101120.65;107792;1255;61848;-64
2023/05/08 00:48:23;;;;;;;8.60;4.00;;;;;;;21.71;20.63;101117.30;107893;1256;62096;-66
2023/05/08 00:50:51;;;;;;;6.70;3.60;;;;;;;21.73;20.61;101121.63;107998;1257;73454;-67
2023/05/08 00:53:18;;;;;;;6.70;3.50;;;;;;;21.66;20.65;101124.09;107974;1257;71312;-66
2023/05/08 00:55:45;;;;;;;9.70;4.00;;;;;;;21.50;20.70;101125.71;107757;1257;72773;-66
2023/05/08 00:58:12;;;;;;;9.80;4.00;;;;;;;21.57;20.77;101127.56;107585;1257;60086;-65
2023/05/08 01:00:40;;;;;;;12.10;4.70;;;;;;;21.47;20.86;101129.99;107758;1257;62515;-64
2023/05/08 01:03:08;;;;;;;9.80;4.70;;;;;;;21.57;20.76;101128.25;107699;1257;75515;-64
2023/05/08 01:05:35;;;;;;;6.30;4.00;;;;;;;21.38;20.91;101134.55;107681;1257;72677;-66
2023/05/08 01:08:02;;;;;;;7.50;4.20;;;;;;;21.40;20.93;101136.34;107846;1257;72592;-64
2023/05/08 01:10:54;;;;;;;8.80;4.10;;;;;;;21.50;20.87;101136.56;107756;1257;60503;-69
2023/05/08 01:13:41;;;;;;;;;;;;;;;21.39;20.93;101143.41;107782;1257;61205;-65
2023/05/08 01:16:16;;;;;;;8.40;4.30;;;;;;;21.56;20.84;101144.73;107375;1257;75660;-65
2023/05/08 01:18:46;;;;;;;9.20;3.80;;;;;;;22.00;20.59;101142.50;107727;1257;69329;-64
2023/05/08 01:21:21;;;;;;;8.00;3.80;;;;;;;22.16;20.29;101147.14;107864;1257;74777;-66
2023/05/08 01:23:57;;;;;;;7.70;3.90;;;;;;;22.21;20.26;101145.91;107789;1256;60890;-64
2023/05/08 01:26:46;;;;;;;8.80;3.80;;;;;;;22.21;20.27;101145.34;107777;1257;62219;-64
2023/05/08 01:29:41;;;;;;;7.90;3.60;;;;;;;22.13;20.33;101145.73;107721;1257;75170;-66
2023/05/08 01:32:10;;;;;;;8.60;3.60;;;;;;;22.00;20.54;101145.20;107786;1257;73171;-65
2023/05/08 01:34:43;;;;;;;7.20;3.60;;;;;;;22.08;20.41;101146.78;107834;1257;74930;-65
2023/05/08 01:37:11;;;;;;;7.20;3.20;;;;;;;22.14;20.30;101144.95;108066;1257;60441;-65
2023/05/08 01:39:42;;;;;;;5.70;3.40;;;;;;;22.14;20.29;101147.44;107913;1256;62424;-66
2023/05/08 01:42:25;;;;;;;;;;;;;;;22.24;20.27;101155.36;107954;1257;73515;-66
2023/05/08 01:45:03;;;;;;;8.30;3.60;;;;;;;22.09;20.37;101152.96;107756;1256;72626;-66
2023/05/08 01:47:32;;;;;;;6.00;3.60;;;;;;;21.35;20.91;101153.79;107648;1257;73776;-65
2023/05/08 01:50:21;;;;;;;7.80;3.50;;;;;;;21.08;21.34;101151.48;107698;1257;61331;-65
2023/05/08 01:52:50;;;;;;;8.30;3.40;;;;;;;21.22;21.07;101147.02;107830;1257;60508;-66
2023/05/08 01:55:20;;;;;;;9.00;3.70;;;;;;;20.84;21.47;101149.28;107818;1257;75783;-64
2023/05/08 01:57:48;;;;;;;5.60;3.30;;;;;;;20.73;21.60;101150.88;107751;1257;71279;-63
2023/05/08 02:00:17;;;;;;;6.60;3.60;;;;;;;20.86;21.44;101151.48;107649;1257;72370;-65
2023/05/08 02:02:43;;;;;;;7.70;3.70;;;;;;;20.84;21.48;101150.31;107723;1257;60522;-65
2023/05/08 02:05:11;;;;;;;7.30;3.40;;;;;;;21.14;21.24;101150.00;107684;1257;61846;-65
2023/05/08 02:07:37;;;;;;;7.90;3.50;;;;;;;21.31;21.10;101146.59;107712;1257;74626;-65
2023/05/08 02:10:06;;;;;;;9.50;3.50;;;;;;;21.40;21.01;101150.11;107553;1257;71110;-65
2023/05/08 02:12:32;;;;;;;5.80;3.10;;;;;;;21.42;20.99;101153.34;107764;1257;74668;-65
2023/05/08 02:15:00;;;;;;;7.20;3.30;;;;;;;21.54;20.96;101156.87;107706;1257;60515;-65
2023/05/08 02:17:27;;;;;;;9.10;3.40;;;;;;;21.51;20.99;101153.14;107608;1257;60944;-65
2023/05/08 02:19:55;;;;;;;5.00;3.70;;;;;;;21.66;20.77;101155.34;107723;1257;75197;-65
2023/05/08 02:22:22;;;;;;;7.60;3.40;;;;;;;21.72;20.79;101158.34;107726;1257;69322;-66
2023/05/08 02:24:52;;;;;;;6.40;3.30;;;;;;;21.79;20.68;101160.54;107659;1257;74996;-65
2023/05/08 02:27:20;;;;;;;7.70;4.10;;;;;;;21.76;20.67;101164.16;107610;1260;59685;-65
2023/05/08 02:29:48;;;;;;;9.60;3.70;;;;;;;21.35;20.98;101168.81;107627;1257;62052;-64
2023/05/08 02:32:16;;;;;;;7.90;3.80;;;;;;;21.47;20.90;101172.55;107670;1257;73880;-63
2023/05/08 02:34:43;;;;;;;15.30;3.80;;;;;;;21.54;20.95;101172.25;107659;1257;72041;-65
2023/05/08 02:37:25;;;;;;;6.80;3.40;;;;;;;21.80;20.65;101174.08;107590;1260;72583;-64
2023/05/08 02:39:52;;;;;;;6.70;3.90;;;;;;;21.85;20.70;101172.88;107618;1260;61717;-65
2023/05/08 02:42:19;;;;;;;6.60;3.90;;;;;;;21.95;20.50;101176.63;107837;1257;60787;-66
2023/05/08 02:44:46;;;;;;;8.40;4.20;;;;;;;21.76;20.52;101180.21;107686;1257;72917;-67
2023/05/08 02:47:25;;;;;;;7.30;4.20;;;;;;;21.98;20.34;101183.20;107709;1262;69440;-66
2023/05/08 02:49:59;;;;;;;8.80;4.30;;;;;;;22.01;20.32;101183.02;107536;1259;73505;-66
2023/05/08 02:52:28;;;;;;;12.30;4.10;;;;;;;21.86;20.43;101186.71;107548;1257;60711;-64
2023/05/08 02:55:04;;;;;;;6.70;3.60;;;;;;;21.84;20.43;101188.83;107648;1257;62373;-64
2023/05/08 02:57:45;;;;;;;7.00;4.10;;;;;;;21.77;20.45;101185.39;107703;1257;74584;-63
2023/05/08 03:00:15;;;;;;;7.80;3.80;;;;;;;21.66;20.55;101185.91;107803;1256;70238;-65
2023/05/08 03:03:17;;;;;;;9.10;3.60;;;;;;;21.84;20.44;101186.17;107670;1257;75316;-65
2023/05/08 03:05:51;;;;;;;9.90;4.40;;;;;;;21.88;20.48;101194.46;107892;1256;60708;-65
2023/05/08 03:08:27;;;;;;;6.70;4.10;;;;;;;21.76;20.36;101197.05;107954;1256;62147;-65
2023/05/08 03:10:55;;;;;;;5.60;3.90;;;;;;;22.00;20.14;101199.56;107981;1256;74056;-64
2023/05/08 03:13:22;;;;;;;7.10;3.60;;;;;;;21.86;20.31;101206.73;107844;1257;69273;-65
2023/05/08 03:15:57;;;;;;;12.00;3.60;;;;;;;21.79;20.40;101210.61;107539;1259;73714;-66
2023/05/08 03:18:54;;;;;;;4.60;3.20;;;;;;;21.91;20.49;101211.20;107759;1257;61576;-65
2023/05/08 03:21:21;;;;;;;6.00;3.10;;;;;;;21.94;20.39;101212.27;107751;1257;60463;-66
2023/05/08 03:23:48;;;;;;;9.50;3.20;;;;;;;21.83;20.35;101216.77;107756;1257;75356;-66
2023/05/08 03:26:18;;;;;;;5.10;3.20;;;;;;;21.75;20.42;101214.06;107641;1257;71285;-67
2023/05/08 03:28:49;;;;;;;7.40;2.90;;;;;;;21.93;20.19;101214.52;107690;1259;74366;-66
2023/05/08 03:31:20;;;;;;;7.40;3.30;;;;;;;21.97;20.18;101216.54;107735;1257;61819;-67
2023/05/08 03:33:48;;;;;;;4.60;3.10;;;;;;;21.85;20.36;101218.44;107818;1257;59932;-67
2023/05/08 03:36:15;;;;;;;4.60;3.10;;;;;;;21.51;20.57;101217.09;107929;1257;74988;-67
2023/05/08 03:38:41;;;;;;;5.30;2.80;;;;;;;21.56;20.48;101221.27;107761;1257;71313;-66
2023/05/08 03:41:08;;;;;;;5.00;3.10;;;;;;;21.66;20.45;101221.27;107748;1257;74434;-65
2023/05/08 03:43:35;;;;;;;5.00;2.80;;;;;;;22.09;19.94;101221.96;107681;1257;61831;-66
2023/05/08 03:46:06;;;;;;;7.40;3.30;;;;;;;22.14;20.09;101225.08;107750;1255;60106;-65
2023/05/08 03:48:33;;;;;;;6.00;2.90;;;;;;;22.11;20.04;101227.95;107880;1256;75244;-66
2023/05/08 03:51:01;;;;;;;9.80;3.20;;;;;;;22.41;20.00;101231.33;107725;1257;72378;-66
2023/05/08 03:53:30;;;;;;;9.60;3.40;;;;;;;22.60;19.88;101237.52;107864;1257;74642;-65
2023/05/08 03:55:57;;;;;;;8.00;3.40;;;;;;;22.58;19.87;101236.39;107907;1260;59891;-63
2023/05/08 03:58:27;;;;;;;4.40;2.90;;;;;;;22.92;19.70;101241.48;107925;1256;60419;-66
2023/05/08 04:00:58;;;;;;;6.50;3.60;;;;;;;22.72;19.64;101243.95;107925;1256;74784;-65
2023/05/08 04:03:47;;;;;;;8.70;3.90;;;;;;;22.62;19.76;101245.59;108040;1257;72506;-66
2023/05/08 04:06:26;;;;;;;7.80;3.50;;;;;;;22.63;20.03;101246.23;107830;1261;72918;-67
2023/05/08 04:09:13;;;;;;;10.60;3.10;;;;;;;22.83;19.64;101252.99;107900;1256;60483;-66
2023/05/08 04:11:43;;;;;;;4.30;2.50;;;;;;;23.00;19.39;101253.50;107788;1257;61268;-66
2023/05/08 04:14:13;;;;;;;6.70;3.20;;;;;;;22.89;19.58;101261.18;107873;1256;74105;-67
2023/05/08 04:16:44;;;;;;;8.20;3.40;;;;;;;22.90;19.63;101257.75;107966;1256;71329;-65
2023/05/08 04:19:14;;;;;;;9.60;3.00;;;;;;;22.99;19.63;101260.33;107889;1255;72455;-68
2023/05/08 04:21:42;;;;;;;7.30;3.20;;;;;;;23.24;19.48;101261.44;107966;1257;60447;-67
2023/05/08 04:24:12;;;;;;;6.60;3.40;;;;;;;23.13;19.21;101267.42;107958;1256;60945;-66
2023/05/08 04:26:39;;;;;;;6.40;3.30;;;;;;;23.09;19.51;101268.02;107950;1257;73818;-67
2023/05/08 04:29:06;;;;;;;6.40;3.80;;;;;;;22.85;19.67;101270.09;107867;1257;72337;-66
2023/05/08 04:31:33;;;;;;;14.60;3.90;;;;;;;22.45;20.09;101272.70;108070;1256;74846;-67
2023/05/08 04:34:01;;;;;;;6.90;3.60;;;;;;;22.77;20.07;101274.39;107833;1257;61378;-65
2023/05/08 04:36:32;;;;;;;6.80;3.80;;;;;;;23.15;19.53;101276.36;107779;1257;62211;-65
2023/05/08 04:39:00;;;;;;;6.20;3.20;;;;;;;23.42;19.55;101278.79;107995;1255;74605;-67
2023/05/08 04:41:27;;;;;;;7.40;3.00;;;;;;;23.60;19.26;101275.80;107992;1256;72623;-67
2023/05/08 04:43:55;;;;;;;7.90;3.50;;;;;;;23.70;19.35;101273.67;107977;1257;74688;-66
2023/05/08 04:46:23;;;;;;;6.60;3.30;;;;;;;23.67;19.41;101274.56;108016;1256;61677;-67
2023/05/08 04:48:50;;;;;;;6.80;3.20;;;;;;;23.55;19.53;101270.29;107767;1256;62591;-65
2023/05/08 04:51:17;;;;;;;5.40;3.30;;;;;;;23.28;19.74;101276.34;108041;1259;76121;-65
2023/05/08 04:53:44;;;;;;;6.50;3.60;;;;;;;23.69;19.48;101272.84;108007;1256;72252;-66
2023/05/08 04:56:11;;;;;;;12.60;4.30;;;;;;;23.93;19.28;101273.24;107892;1257;72974;-67
2023/05/08 04:58:38;;;;;;;9.50;3.70;;;;;;;23.80;19.14;101277.80;107863;1257;61216;-66
2023/05/08 05:01:04;;;;;;;5.00;2.90;;;;;;;23.63;19.39;101277.93;108209;1253;62639;-67
2023/05/08 05:03:32;;;;;;;8.20;3.30;;;;;;;23.55;19.57;101282.31;108188;1254;75780;-65
2023/05/08 05:05:59;;;;;;;14.60;3.80;;;;;;;23.83;19.22;101281.89;108120;1254;71031;-68
2023/05/08 05:08:26;;;;;;;12.00;3.60;;;;;;;24.32;18.83;101276.75;108152;1255;72929;-65
2023/05/08 05:10:54;;;;;;;12.10;4.00;;;;;;;24.45;18.68;101282.74;108041;1253;60338;-69
2023/05/08 05:13:21;;;;;;;15.00;4.00;;;;;;;24.42;18.77;101277.23;107997;1253;61188;-67
2023/05/08 05:15:50;;;;;;;6.80;3.30;;;;;;;24.47;18.49;101281.54;108211;1254;75809;-66
2023/05/08 05:18:18;;;;;;;10.70;3.10;;;;;;;24.69;18.41;101282.30;108240;1254;72641;-67
2023/05/08 05:20:45;;;;;;;12.60;3.40;;;;;;;24.94;18.21;101279.48;108040;1256;74973;-66
2023/05/08 05:23:12;;;;;;;16.00;3.40;;;;;;;25.09;18.17;101276.09;108239;1253;60832;-67
2023/05/08 05:25:39;;;;;;;12.10;3.60;;;;;;;25.15;18.17;101279.80;108231;1257;60684;-67
2023/05/08 05:28:06;;;;;;;11.10;3.30;;;;;;;25.15;18.23;101278.52;108239;1254;76109;-68
2023/05/08 05:30:32;;;;;;;10.30;4.00;;;;;;;25.20;18.08;101284.73;108062;1254;71511;-67
2023/05/08 05:32:59;;;;;;;17.00;3.90;;;;;;;25.30;17.93;101281.99;108104;1254;73550;-67
2023/05/08 05:35:26;;;;;;;15.00;3.90;;;;;;;25.61;17.61;101280.52;108014;1257;61210;-68
2023/05/08 05:37:54;;;;;;;12.90;3.90;;;;;;;25.70;17.38;101284.09;108144;1258;61621;-67
2023/05/08 05:40:21;;;;;;;11.90;3.80;;;;;;;25.78;17.16;101281.80;108026;1254;75259;-68
2023/05/08 05:42:49;;;;;;;10.90;3.90;;;;;;;26.10;17.02;101283.75;108155;1254;72240;-68
2023/05/08 05:45:16;;;;;;;12.10;3.80;;;;;;;26.24;17.01;101284.91;108086;1254;71112;-67
2023/05/08 05:47:45;;;;;;;20.20;5.10;;;;;;;26.39;17.04;101290.96;108058;1254;62420;-67
2023/05/08 05:50:12;;;;;;;8.80;3.40;;;;;;;26.57;16.85;101292.49;107954;1254;61136;-66
2023/05/08 05:52:40;;;;;;;6.30;3.10;;;;;;;26.55;16.83;101291.05;107981;1253;75005;-66
2023/05/08 05:55:07;;;;;;;11.20;3.30;;;;;;;26.95;16.72;101291.71;108132;1254;72664;-67
2023/05/08 05:57:34;;;;;;;10.00;3.40;;;;;;;27.51;16.53;101287.15;107920;1253;74976;-66
2023/05/08 06:00:01;;;;;;;8.10;3.80;;;;;;;27.60;16.24;101287.94;108055;1259;61206;-67
2023/05/08 06:02:29;;;;;;;6.60;3.70;;;;;;;27.83;15.93;101287.84;108057;1254;62231;-67
2023/05/08 06:04:56;;;;;;;8.20;3.60;;;;;;;28.26;15.74;101282.78;108207;1254;75861;-67
2023/05/08 06:07:23;;;;;;;6.60;3.30;;;;;;;28.55;15.61;101279.38;108035;1254;73897;-67
2023/05/08 06:09:51;;;;;;;10.90;3.60;;;;;;;28.43;15.34;101281.55;108069;1258;72834;-67
2023/05/08 06:12:19;;;;;;;6.20;3.60;;;;;;;28.39;15.23;101278.15;108154;1252;60344;-68
2023/05/08 06:14:46;;;;;;;8.00;3.20;;;;;;;28.56;15.17;101278.38;107930;1252;60702;-68
2023/05/08 06:17:13;;;;;;;7.90;3.10;;;;;;;28.58;14.81;101278.20;107985;1254;72398;-68
2023/05/08 06:19:40;;;;;;;15.60;3.70;;;;;;;28.89;14.92;101279.55;108143;1254;72299;-66
2023/05/08 06:22:07;;;;;;;6.90;3.40;;;;;;;29.19;14.62;101278.64;108097;1254;71597;-68
2023/05/08 06:24:35;;;;;;;8.70;4.10;;;;;;;29.28;14.61;101278.47;108035;1254;62753;-68
2023/05/08 06:27:02;;;;;;;6.50;3.60;;;;;;;29.56;14.29;101277.55;108107;1254;61124;-69
2023/05/08 06:29:29;;;;;;;11.20;3.80;;;;;;;29.99;14.18;101278.98;108064;1254;76034;-66
2023/05/08 06:31:56;;;;;;;10.80;3.90;;;;;;;30.23;14.08;101274.38;108100;1254;72531;-66
2023/05/08 06:34:22;;;;;;;10.30;3.60;;;;;;;30.47;13.96;101277.09;108081;1254;75213;-66
2023/05/08 06:36:49;;;;;;;9.00;3.30;;;;;;;30.23;13.82;101273.34;108011;1254;61296;-65
2023/05/08 06:39:16;;;;;;;9.70;3.50;;;;;;;30.23;14.03;101274.83;107922;1254;61254;-67
2023/05/08 06:41:47;;;;;;;10.30;3.20;;;;;;;30.30;14.15;101275.77;108040;1254;76065;-67
2023/05/08 06:44:18;;;;;;;6.50;3.30;;;;;;;30.42;13.49;101273.92;108081;1254;73099;-68
2023/05/08 06:46:45;;;;;;;5.80;2.90;;;;;;;30.44;13.75;101274.33;107987;1258;72361;-68
2023/05/08 06:49:12;;;;;;;8.70;3.30;;;;;;;30.54;13.66;101273.08;108002;1254;61952;-69
2023/05/08 06:51:39;;;;;;;11.60;3.80;;;;;;;30.31;13.94;101271.98;108022;1254;60219;-68
2023/05/08 06:54:07;;;;;;;5.90;3.70;;;;;;;30.87;13.58;101272.20;107853;1253;74005;-68
2023/05/08 06:56:34;;;;;;;10.60;3.60;;;;;;;30.13;14.00;101275.44;107985;1254;72460;-67
2023/05/08 06:59:00;;;;;;;6.40;3.30;;;;;;;29.64;14.32;101276.55;108022;1253;74327;-68
2023/05/08 07:01:36;;;;;;;8.70;4.10;;;;;;;30.03;13.87;101279.14;107995;1254;61802;-66
2023/05/08 07:04:03;;;;;;;11.60;3.90;;;;;;;30.29;13.74;101280.55;108042;1254;60682;-67
2023/05/08 07:06:30;;;;;;;6.50;3.20;;;;;;;30.08;13.63;101276.46;108085;1254;74822;-67
2023/05/08 07:08:57;;;;;;;9.90;3.80;;;;;;;29.82;14.05;101280.39;108033;1253;72522;-66
2023/05/08 07:11:24;;;;;;;7.60;3.30;;;;;;;29.83;14.10;101281.43;108001;1254;73978;-68
2023/05/08 07:13:51;;;;;;;8.40;3.60;;;;;;;29.67;14.31;101285.30;107986;1256;62492;-66
2023/05/08 07:16:18;;;;;;;6.70;3.50;;;;;;;29.69;14.20;101279.17;108048;1254;62391;-66
2023/05/08 07:18:45;;;;;;;10.00;4.30;;;;;;;30.30;13.92;101279.14;108068;1253;74292;-68
2023/05/08 07:21:12;;;;;;;10.80;3.80;;;;;;;30.25;13.87;101280.77;107958;1254;71144;-67
2023/05/08 07:23:38;;;;;;;7.30;3.70;;;;;;;30.21;13.64;101278.63;108034;1254;74788;-67
2023/05/08 07:26:07;;;;;;;11.10;5.40;;;;;;;29.82;13.89;101279.50;108150;1256;63166;-67
2023/05/08 07:28:33;;;;;;;9.90;5.00;;;;;;;29.62;14.01;101279.31;108162;1253;62555;-67
2023/05/08 07:31:04;;;;;;;10.70;3.90;;;;;;;29.62;14.17;101281.48;108161;1254;76264;-69
2023/05/08 07:33:32;;;;;;;13.40;3.40;;;;;;;29.50;14.17;101278.16;108213;1254;72150;-65
2023/05/08 07:35:59;;;;;;;11.40;5.00;;;;;;;29.68;14.23;101275.67;108116;1259;74686;-67
2023/05/08 07:38:26;;;;;;;6.30;3.90;;;;;;;30.01;13.94;101274.52;108206;1254;60430;-66
2023/05/08 07:40:56;;;;;;;8.90;4.50;;;;;;;30.36;13.68;101274.95;108029;1253;60449;-67
2023/05/08 07:43:23;;;;;;;14.60;4.70;;;;;;;30.58;13.39;101276.23;108215;1253;75921;-67
2023/05/08 07:45:50;;;;;;;7.90;4.10;;;;;;;30.66;12.88;101276.16;108135;1254;71074;-67
2023/05/08 07:48:17;;;;;;;6.90;3.70;;;;;;;30.48;13.02;101274.46;107942;1253;74829;-66
2023/05/08 07:50:45;;;;;;;8.40;5.40;;;;;;;30.14;12.90;101276.11;108139;1254;62787;-68
2023/05/08 07:53:11;;;;;;;15.20;4.60;;;;;;;30.25;12.77;101270.43;108094;1254;62275;-66
2023/05/08 07:55:38;;;;;;;7.90;4.80;;;;;;;30.58;12.88;101269.23;108196;1254;74788;-66
2023/05/08 07:58:05;;;;;;;11.00;5.50;;;;;;;31.25;12.53;101270.31;108002;1254;72028;-67
2023/05/08 08:00:32;;;;;;;16.10;5.80;;;;;;;31.57;12.30;101268.34;108080;1254;74658;-67
2023/05/08 08:02:59;;;;;;;19.40;4.90;;;;;;;31.26;11.77;101271.50;108082;1253;62461;-67
2023/05/08 08:05:26;;;;;;;20.10;4.50;;;;;;;30.84;11.98;101265.81;108155;1254;62624;-67
2023/05/08 08:07:53;;;;;;;14.20;4.10;;;;;;;30.46;12.30;101265.73;108038;1253;75980;-67
2023/05/08 08:10:20;;;;;;;11.50;4.10;;;;;;;30.58;12.42;101259.75;108147;1253;71743;-67
2023/05/08 08:12:47;;;;;;;14.80;3.80;;;;;;;30.89;12.43;101264.70;108116;1254;74654;-68
2023/05/08 08:15:14;;;;;;;8.50;3.60;;;;;;;31.23;12.30;101263.17;108098;1254;62198;-68
2023/05/08 08:17:41;;;;;;;8.10;3.40;;;;;;;31.20;12.18;101262.02;108146;1254;62314;-67
2023/05/08 08:20:08;;;;;;;12.10;3.00;;;;;;;31.40;11.87;101260.23;108174;1253;75900;-68
2023/05/08 08:22:36;;;;;;;13.40;6.80;;;;;;;31.60;11.91;101263.67;107995;1259;72632;-67
2023/05/08 08:25:03;;;;;;;14.50;5.60;;;;;;;31.55;11.77;101261.81;108081;1254;74609;-66
2023/05/08 08:27:30;;;;;;;14.80;3.80;;;;;;;31.49;11.87;101274.12;108047;1254;60982;-67
2023/05/08 08:29:57;;;;;;;10.50;3.60;;;;;;;31.02;11.85;101269.67;108103;1254;61279;-66
2023/05/08 08:32:42;;;;;;;13.10;3.20;;;;;;;30.82;12.07;101267.65;108009;1254;75666;-67
2023/05/08 08:35:09;;;;;;;6.50;3.30;;;;;;;31.04;11.91;101266.41;107901;1254;72501;-67
2023/05/08 08:37:37;;;;;;;9.00;3.10;;;;;;;31.19;11.73;101269.71;107878;1254;74078;-67
2023/05/08 08:40:04;;;;;;;12.40;3.00;;;;;;;31.23;11.33;101267.45;107970;1257;61543;-68
2023/05/08 08:42:31;;;;;;;6.70;2.90;;;;;;;30.90;11.67;101264.30;108055;1254;62396;-67
2023/05/08 08:44:59;;;;;;;6.40;2.80;;;;;;;30.58;11.65;101259.95;108069;1254;74917;-68
2023/05/08 08:47:28;;;;;;;7.70;2.80;;;;;;;30.66;11.99;101254.84;108017;1260;72690;-68
2023/05/08 08:49:57;;;;;;;7.20;3.10;;;;;;;31.10;11.56;101264.65;108042;1254;75151;-68
2023/05/08 08:52:43;;;;;;;4.50;2.90;;;;;;;31.33;11.27;101256.09;107934;1254;61179;-68
2023/05/08 08:55:11;;;;;;;6.60;2.90;;;;;;;31.61;11.32;101251.23;108106;1254;60936;-68
2023/05/08 08:57:41;;;;;;;9.70;3.60;;;;;;;31.47;11.38;101248.92;108067;1254;75878;-68
2023/05/08 09:00:08;;;;;;;6.30;3.20;;;;;;;31.18;11.64;101250.08;108061;1254;72507;-70
2023/05/08 09:02:35;;;;;;;10.00;3.20;;;;;;;31.37;11.42;101255.46;108045;1254;74832;-68
2023/05/08 09:05:02;;;;;;;6.60;2.90;;;;;;;30.99;11.22;101250.27;107963;1254;62306;-67
2023/05/08 09:07:29;;;;;;;11.40;3.20;;;;;;;31.05;11.24;101249.05;108007;1254;60446;-66
2023/05/08 09:09:56;;;;;;;12.50;3.10;;;;;;;30.78;11.55;101247.13;108030;1258;74691;-67
2023/05/08 09:12:23;;;;;;;7.30;3.40;;;;;;;30.31;11.72;101244.65;107922;1254;72657;-66
2023/05/08 09:14:50;;;;;;;10.10;3.30;;;;;;;29.98;12.00;101246.41;108078;1254;73903;-68
2023/05/08 09:17:17;;;;;;;8.50;3.20;;;;;;;30.04;12.14;101247.09;107933;1254;62413;-66
2023/05/08 09:19:44;;;;;;;5.40;3.10;;;;;;;30.59;11.70;101252.59;108028;1254;60558;-65
2023/05/08 09:22:11;;;;;;;10.40;3.20;;;;;;;31.17;11.56;101249.40;108070;1254;74092;-66
2023/05/08 09:24:57;;;;;;;7.50;3.30;;;;;;;31.36;11.29;101240.89;108176;1254;72453;-69
2023/05/08 09:27:25;;;;;;;8.80;3.10;;;;;;;31.79;11.14;101245.30;107802;1254;71101;-68
2023/05/08 09:30:03;;;;;;;6.70;3.30;;;;;;;31.79;10.92;101251.49;108088;1254;62215;-69
2023/05/08 09:32:31;;;;;;;11.80;2.90;;;;;;;31.75;11.25;101247.49;108143;1254;61976;-68
2023/05/08 09:34:58;;;;;;;10.20;3.30;;;;;;;31.35;11.05;101249.70;108071;1256;75692;-69
2023/05/08 09:37:25;;;;;;;8.40;2.70;;;;;;;31.25;11.22;101245.98;108073;1254;69388;-67
2023/05/08 09:39:53;;;;;;;6.50;3.20;;;;;;;31.68;11.30;101240.35;108068;1254;74620;-66
2023/05/08 09:42:19;;;;;;;11.20;3.40;;;;;;;32.18;10.99;101228.64;108037;1254;62139;-67
2023/05/08 09:44:53;;;;;;;10.70;3.30;;;;;;;31.74;11.23;101245.11;107904;1254;62410;-69
2023/05/08 09:47:21;;;;;;;8.40;2.60;;;;;;;31.81;11.38;101242.34;108045;1254;74734;-69
2023/05/08 09:50:08;;;;;;;11.20;3.10;;;;;;;32.27;11.16;101240.11;108106;1254;72688;-67
2023/05/08 09:52:37;;;;;;;12.60;3.30;;;;;;;32.41;10.82;101237.34;108014;1254;74976;-69
2023/05/08 09:55:05;;;;;;;13.90;3.30;;;;;;;32.10;11.08;101244.09;108038;1254;61197;-69
2023/05/08 09:57:38;;;;;;;5.60;2.60;;;;;;;32.06;11.00;101238.71;108113;1254;62489;-69
2023/05/08 10:00:12;;;;;;;14.80;2.90;;;;;;;32.51;11.01;101232.61;108094;1254;71663;-70
2023/05/08 10:02:41;;;;;;;6.30;3.30;;;;;;;31.76;10.69;101247.37;108169;1254;69643;-68
2023/05/08 10:05:34;;;;;;;7.90;3.00;;;;;;;31.37;10.95;101243.08;108076;1254;73459;-69
2023/05/08 10:08:21;;;;;;;6.70;2.90;;;;;;;30.68;11.34;101245.30;107839;1254;60496;-67
2023/05/08 10:10:48;;;;;;;6.50;3.00;;;;;;;30.84;11.23;101244.09;108085;1254;62628;-69
2023/05/08 10:13:15;;;;;;;5.90;3.00;;;;;;;30.79;11.30;101237.48;108089;1256;76467;-68
2023/05/08 10:15:42;;;;;;;7.10;3.10;;;;;;;31.09;11.31;101235.73;108089;1254;72871;-69
2023/05/08 10:18:13;;;;;;;7.40;3.50;;;;;;;31.17;11.34;101237.81;108101;1257;73889;-69
2023/05/08 10:20:43;;;;;;;9.50;3.50;;;;;;;31.32;11.33;101237.52;108072;1254;60405;-69
2023/05/08 10:23:13;;;;;;;12.30;3.90;;;;;;;31.39;11.12;101243.58;108100;1254;62892;-69
2023/05/08 10:25:44;;;;;;;7.40;3.30;;;;;;;31.58;11.43;101234.65;108095;1259;73956;-69
2023/05/08 10:28:52;;;;;;;8.00;3.20;;;;;;;31.86;11.21;101228.92;108111;1257;71777;-69
2023/05/08 10:31:19;;;;;;;8.20;3.60;;;;;;;32.17;11.36;101223.52;108026;1255;73347;-67
2023/05/08 10:33:46;;;;;;;8.50;2.90;;;;;;;32.11;11.36;101207.84;108002;1254;62484;-68
2023/05/08 10:36:13;;;;;;;13.20;3.30;;;;;;;32.05;11.25;101228.63;108144;1254;60405;-69
2023/05/08 10:38:40;;;;;;;11.10;3.80;;;;;;;31.39;11.54;101234.37;108107;1253;76269;-68
2023/05/08 10:41:15;;;;;;;7.10;3.30;;;;;;;31.81;11.31;101225.42;108156;1260;72803;-67
2023/05/08 10:43:42;;;;;;;10.50;3.40;;;;;;;32.26;11.26;101219.23;108136;1255;73639;-65
2023/05/08 10:46:31;;;;;;;13.70;3.80;;;;;;;32.18;11.40;101222.54;108088;1257;61788;-67
2023/05/08 10:49:36;;;;;;;12.80;3.70;;;;;;;31.64;11.14;101232.11;108107;1253;61362;-67
2023/05/08 10:52:27;;;;;;;7.60;3.50;;;;;;;30.92;11.44;101229.79;108104;1254;74873;-69
2023/05/08 10:55:03;;;;;;;8.70;3.70;;;;;;;30.69;11.64;101231.23;108011;1257;72374;-68
2023/05/08 10:57:30;;;;;;;12.10;3.00;;;;;;;30.53;11.90;101225.67;108079;1254;72940;-69
2023/05/08 10:59:57;;;;;;;5.40;3.00;;;;;;;30.38;12.07;101228.88;108073;1255;62383;-70
2023/05/08 11:02:35;;;;;;;7.70;3.20;;;;;;;30.30;12.04;101224.65;108085;1254;62673;-70
2023/05/08 11:05:19;;;;;;;10.80;4.00;;;;;;;30.03;12.50;101226.17;108042;1259;74359;-70
2023/05/08 11:07:57;;;;;;;13.20;3.60;;;;;;;29.92;12.17;101227.56;108074;1254;70657;-69
2023/05/08 11:10:35;;;;;;;8.00;3.30;;;;;;;29.68;12.42;101235.11;108048;1254;74887;-70
2023/05/08 11:13:02;;;;;;;13.00;3.20;;;;;;;29.48;12.30;101240.33;108054;1254;60712;-69
2023/05/08 11:15:39;;;;;;;12.30;3.70;;;;;;;29.79;12.23;101242.67;108078;1254;62196;-68
2023/05/08 11:18:12;;;;;;;11.90;3.60;;;;;;;29.50;12.26;101248.13;108147;1254;76107;-68
2023/05/08 11:20:40;;;;;;;9.60;3.60;;;;;;;29.49;12.40;101251.31;108102;1257;72478;-68
2023/05/08 11:23:23;;;;;;;14.30;3.80;;;;;;;29.53;12.43;101240.94;108127;1254;73428;-67
2023/05/08 11:26:03;;;;;;;9.20;3.60;;;;;;;29.54;12.38;101233.05;108152;1253;61756;-68
2023/05/08 11:28:30;;;;;;;16.10;3.80;;;;;;;28.91;12.59;101241.63;108181;1259;61516;-68
2023/05/08 11:31:03;;;;;;;13.20;3.60;;;;;;;28.74;12.65;101243.16;108180;1257;75915;-67